Tiempo atmosférico en la estación meteorológica de Cádiz, Cadiz (1 m.)



Fecha
DESCASC
Temp. máxima en grados centígrados (hora)
DESCASC
Temp. mínima en grados centígrados (hora)
DESCASC
Temp. media en grados centígrados
DESCASC
Racha de viento máxima en m/sg (hora)
DESCASC
Velocidad máxima media en intervalos de 10 minutos(hora)
DESCASC
Precipitaciones diarias en mm
DESCASC
Precipitaciones de 00:00 a 06:00 en mm
DESCASC
Precipitaciones de 06:00 a 12:00 en mm
DESCASC
Precipitaciones de 12:00 a 18:00 en mm
DESCASC
Precipitaciones de 18:00 a 24:00 en mm
DESCASC
19-09-2019 24.4 (14:00) 20.1 (08:20) 22.3 6.94 (15:10) 4.72 (17:20) 0 0 0 0 0
18-09-2019 24.5 (17:00) 20.3 (08:10) 22.4 6.67 (17:10) 4.44 (17:10) 0 0 0 0 0
17-09-2019 26.9 (12:30) 21.4 (00:00) 24.1 8.61 (08:40) 6.67 (08:40) 0 0 0 0 0
16-09-2019 25.1 (15:10) 19.4 (00:00) 22.3 5.83 (16:10) 4.17 (16:10) 0 0 0 0 0
15-09-2019 24.7 (16:40) 20.6 (00:00) 22.7 6.67 (14:50) 4.72 (00:10) 0 0 0 0 0
14-09-2019 27.4 (14:00) 20.8 (00:00) 24.1 7.5 (13:50) 6.11 (13:50) 0 0 0 0 0
13-09-2019 27.5 (13:50) 19.5 (00:00) 23.5 8.89 (15:10) 7.22 (18:10) 0.7 0 0 0.7 0
12-09-2019 26.8 (18:40) 18.8 (00:00) 22.8 10 (19:20) 7.22 (19:10) 0 0 0 0 0
11-09-2019 28.5 (18:50) 17.7 (00:00) 23.1 11.11 (15:30) 8.06 (15:30) 0 0 0 0 0
10-09-2019 24.4 (18:20) 19.2 (08:20) 21.8 12.22 (10:00) 8.33 (13:40) 0 0 0 0 0
09-09-2019 26.8 (13:30) 20.9 (08:10) 23.8 9.44 (20:00) 6.39 (18:50) 0 0 0 0 0
08-09-2019 28.2 (16:00) 23.3 (00:00) 25.8 15.28 (00:10) 11.39 (00:10) 0 0 0 0 0
07-09-2019 29.2 (15:30) 24.3 (00:00) 26.8 16.39 (11:30) 12.22 (11:30) 0 0 0 0 0
06-09-2019 30.8 (15:40) 24.5 (00:00) 27.6 13.89 (10:40) 10.83 (11:20) 0 0 0 0 0
05-09-2019 26.3 (18:20) 22.8 (00:00) 24.5 8.33 (23:59) 6.11 (23:59) 0 0 0 0 0
04-09-2019 30 (12:10) 24 (00:00) 27 15.28 (00:40) 11.11 (00:40) 0 0 0 0 0
03-09-2019 31.6 (15:50) 23.7 (00:00) 27.7 12.78 (10:30) 8.89 (20:10) 0 0 0 0 0
02-09-2019 30 (19:10) 21.9 (00:00) 25.9 11.67 (21:50) 8.33 (21:50) 0 0 0 0 0
01-09-2019 27 (16:00) 21.4 (00:00) 24.2 6.94 (07:20) 5 (20:10) 0 0 0 0 0
31-08-2019 29.3 (13:00) 23.7 (00:00) 26.5 7.78 (16:50) 4.44 (00:10) 0 0 0 0 0
30-08-2019 29.9 (17:30) 23 (00:00) 26.4 9.17 (00:30) 6.94 (00:30) 0 0 0 0 0
29-08-2019 -- (--) -- (--) -- 11.39 (12:00) 8.61 (12:10) -- -- 0 0 0
28-08-2019 28.4 (17:50) 20.9 (00:00) 24.6 8.33 (16:40) 5.28 (16:40) 0 0 0 0 0
27-08-2019 25.2 (14:50) 21.1 (00:00) 23.2 7.78 (01:10) 5 (01:40) 0 0 0 0 0
26-08-2019 25 (17:20) 21.6 (00:00) 23.3 10.28 (07:50) 7.5 (07:50) 0 0 0 0 0
25-08-2019 30.3 (16:40) 22 (00:00) 26.1 13.61 (18:40) 10 (18:40) 0 0 0 0 0
24-08-2019 30.7 (16:30) 21.9 (00:00) 26.3 15.28 (00:30) 11.39 (00:30) 0 0 0 0 0
23-08-2019 30 (17:00) 24.2 (00:00) 27.1 16.67 (01:30) 11.67 (13:00) 0 0 0 0 0
22-08-2019 30.6 (16:10) 24.6 (00:00) 27.6 16.67 (18:20) 12.22 (19:10) 0 0 0 0 0
21-08-2019 29.2 (12:00) 21.6 (00:00) 25.4 14.17 (23:10) 10.56 (22:40) 0 0 0 0 0

Gráficas

Temp. máximas Temp. mínimas Temp. medias Precipitaciones Rachas de viento máximas Velocidades máximas media en intervalos de 10 minutos

Datos horarios

Fecha y hora oficial Temperatura (ºC) Velocidad del viento (km/h) Dirección del viento Racha (km/h) Dirección de racha Precipitación (mm) Presión (hPa) Tendencia (hPa) Humedad (%)
2019-09-19 23:00:00 21.8 8 Oeste 14 Oeste 0 1016 1.2 80
2019-09-19 22:00:00 22.1 9 Oeste 14 Noroeste 0 1015.2 0.4 77
2019-09-19 21:00:00 22.3 9 Oeste 19 Oeste 0 1014.7 -0.5 69
2019-09-19 20:00:00 22.9 12 Oeste 19 Oeste 0 1014.8 -0.6 71
2019-09-19 19:00:00 23.9 11 Oeste 21 Oeste 0 1014.8 -1 67
2019-09-19 18:00:00 23.1 16 Oeste 24 Oeste 0 1015.2 -1.3 72
2019-09-19 17:00:00 22.7 16 Oeste 24 Oeste 0 1015.4 -1.4 73
2019-09-19 16:00:00 22.5 15 Oeste 25 Oeste 0 1015.8 -1.5 74
2019-09-19 15:00:00 23.9 9 Oeste 18 Oeste 0 1016.5 -0.9 72
2019-09-19 14:00:00 24.4 7 Sudoeste 17 Sudoeste 0 1016.8 -0.5 66
2019-09-19 13:00:00 23.9 7 Sur 14 Sur 0 1017.3 0.6 73
2019-09-19 12:00:00 23.5 7 Sur 14 Sur 0 1017.4 1.1 75
2019-09-19 11:00:00 22.6 6 Sur 14 Sur 0 1017.3 1.4 79
2019-09-19 10:00:00 21 10 Sur 18 Sudeste 0 1016.7 0.8 86
2019-09-19 09:00:00 20.3 14 Sudeste 18 Sudeste 0 1016.3 0.5 89
2019-09-19 08:00:00 20.3 13 Sudeste 17 Sudeste 0 1015.9 0 89
2019-09-19 07:00:00 20.9 6 Sur 10 Sur 0 1015.9 -0.2 87
2019-09-19 06:00:00 21 5 Sur 11 Sur 0 1015.8 -1 86
2019-09-19 05:00:00 21.1 5 Sudoeste 11 Sudoeste 0 1015.9 -1.1 85
2019-09-19 04:00:00 21.1 4 Sudoeste 9 Sudoeste 0 1016.1 -1 86
2019-09-19 03:00:00 20.9 4 Sudoeste 10 Oeste 0 1016.8 -0.4 87
2019-09-19 02:00:00 20.9 6 Sudoeste 11 Sudoeste 0 1017 0 85
2019-09-19 01:00:00 21.1 6 Oeste 13 Oeste 0 1017.1 0.3 82
2019-09-19 00:00:00 21.3 8 Oeste 15 Oeste 0 1017.2 0.5 83
2019-09-18 23:00:00 21.5 9 Oeste 15 Oeste 0 1017 0.6 79
2019-09-18 22:00:00 21.7 9 Oeste 18 Oeste 0 1016.8 0.7 75
2019-09-18 21:00:00 21.8 11 Oeste 23 Oeste 0 1016.7 0.7 73
2019-09-18 20:00:00 22.5 15 Oeste 24 Oeste 0 1016.4 -0.1 76
2019-09-18 19:00:00 23.4 12 Sudoeste 21 Oeste 0 1016.1 -0.5 70
2019-09-18 18:00:00 23.8 14 Oeste 24 Oeste 0 1016 -1.2 67
2019-09-18 17:00:00 24.1 15 Oeste 24 Oeste 0 1016.5 -1 65
2019-09-18 16:00:00 24.1 12 Oeste 22 Oeste 0 1016.6 -0.9 65
2019-09-18 15:00:00 23.3 13 Oeste 20 Oeste 0 1017.2 -0.3 67
2019-09-18 14:00:00 23.3 10 Oeste 17 Oeste 0 1017.5 0.4 72
2019-09-18 13:00:00 24 6 Sudoeste 16 Sudoeste 0 1017.5 1 69
2019-09-18 12:00:00 23.5 8 Sudoeste 14 Sudoeste 0 1017.5 1.4 70
2019-09-18 11:00:00 23 8 Sudoeste 15 Sudoeste 0 1017.1 1.6 74
2019-09-18 10:00:00 21.9 7 Sudoeste 12 Sudoeste 0 1016.5 1.5 80
2019-09-18 09:00:00 20.8 5 Sudoeste 9 Oeste 0 1016.1 1.2 84
2019-09-18 08:00:00 20.4 5 Sudoeste 10 Sudoeste 0 1015.5 0.6 85
2019-09-18 07:00:00 20.7 5 Sudoeste 10 Sudoeste 0 1015 -0.4 84
2019-09-18 06:00:00 20.8 5 Sudoeste 11 Sudoeste 0 1014.9 -0.7 86
2019-09-18 05:00:00 20.8 4 Sur 9 Sur 0 1014.9 -0.8 87
2019-09-18 04:00:00 20.7 2 Sur 5 Sudoeste 0 1015.4 -0.4 85
2019-09-18 03:00:00 20.8 3 Sudoeste 9 Oeste 0 1015.6 -0.4 83
2019-09-18 02:00:00 21.3 5 Oeste 12 Noroeste 0 1015.7 0.2 83
2019-09-18 01:00:00 21.3 6 Oeste 17 Noroeste 0 1015.8 1 82
2019-09-18 00:00:00 21.8 8 Noroeste 15 Oeste 0 1016 1.8 82
2019-09-17 23:00:00 22 9 Oeste 16 Oeste 0 1015.5 1.3 79
2019-09-17 22:00:00 22.1 13 Oeste 19 Oeste 0 1014.8 0.5 84
2019-09-17 21:00:00 22.7 8 Oeste 18 Oeste 0 1014.2 -0.2 84
2019-09-15 18:00:00 23.8 13 Oeste 21 Oeste 0 1017.7 -0.9 75
2019-09-15 17:00:00 24.4 14 Sudoeste 21 Oeste 0 1017.9 -1.1 70
2019-09-15 16:00:00 24.2 15 Sudoeste 24 Sudoeste 0 1018.2 -1 71
2019-09-15 15:00:00 24.2 12 Sudoeste 24 Sudoeste 0 1018.6 -0.6 73
2019-09-15 14:00:00 23.9 12 Sudoeste 22 Sudoeste 0 1019 0.2 75
2019-09-15 13:00:00 23.7 11 Sudoeste 18 Sudoeste 0 1019.2 0.9 75
2019-09-15 12:00:00 23 8 Sudoeste 14 Sur 0 1019.2 1.2 77
2019-09-15 11:00:00 21.4 6 Sur 11 Sur 0 1018.8 1.1 90
2019-09-15 10:00:00 20.8 5 Sur 9 Sur 0 1018.3 0.7 92
2019-09-15 09:00:00 20.8 4 Sudoeste 10 Sudoeste 0 1018 0.8 93
2019-09-15 08:00:00 21.2 4 Sur 11 Sur 0 1017.7 0.5 90
2019-09-15 07:00:00 22.3 3 Este 12 Nordeste 0 1017.6 0.4 83
2019-09-15 06:00:00 22.7 11 Nordeste 14 Nordeste 0 1017.2 -0.4 82
2019-09-15 05:00:00 23.5 4 Nordeste 8 Este 0 1017.2 -0.3 83
2019-09-15 04:00:00 23.4 4 Este 8 Nordeste 0 1017.2 -0.9 83
2019-09-15 03:00:00 23.6 3 Este 10 Este 0 1017.6 -0.4 82
2019-09-15 02:00:00 23.7 8 Este 16 Este 0 1017.5 -0.7 81
2019-09-15 01:00:00 23.8 8 Este 21 Este 0 1018.1 0.5 81
2019-09-15 00:00:00 23.7 16 Este 21 Este 0 1018 1.1 81
2019-09-14 23:00:00 24.1 5 Este 15 Este 0 1018.2 1.6 79
2019-09-14 22:00:00 24.2 7 Este 12 Este 0 1017.6 1.4 78
2019-09-14 21:00:00 23.8 6 Sudoeste 15 Sudoeste 0 1016.9 0.9 77
2019-09-14 20:00:00 25.2 3 Sudeste 16 Sur 0 1016.6 0.6 71
2019-09-14 19:00:00 24.9 12 Noroeste 22 Oeste 0 1016.2 -0.2 71
2019-09-14 18:00:00 26.2 13 Oeste 19 Oeste 0 1016 -0.5 64
2019-09-14 17:00:00 26 12 Noroeste 17 Noroeste 0 1016 -0.8 65
2019-09-14 16:00:00 25.6 10 Noroeste 25 Oeste 0 1016.4 -1 69
2019-09-14 15:00:00 26.4 15 Sudoeste 26 Oeste 0 1016.5 -1.1 63
2019-09-14 14:00:00 27.4 20 Sudeste 27 Sudeste 0 1016.8 -0.8 59
2019-09-14 13:00:00 26.7 10 Este 21 Este 0 1017.4 -0.2 64
2019-09-14 12:00:00 24.9 10 Nordeste 16 Nordeste 0 1017.6 0.2 66
2019-09-14 11:00:00 24.2 12 Nordeste 17 Nordeste 0 1017.6 0.7 71
2019-09-14 10:00:00 22.7 8 Nordeste 14 Nordeste 0 1017.6 1 75
2019-09-14 09:00:00 22 9 Nordeste 27 Este 0 1017.4 1.2 75
2019-09-14 08:00:00 22.3 8 Nordeste 19 Nordeste 0 1016.9 0.2 78
2019-09-14 07:00:00 21.3 12 Nordeste 17 Nordeste 0 1016.6 -0.2 79
2019-09-14 06:00:00 21.6 13 Nordeste 19 Nordeste 0 1016.2 -1.2 76
2019-09-14 05:00:00 21.4 17 Norte 22 Nordeste 0 1016.7 -1.2 74
2019-09-14 04:00:00 21.2 16 Norte 22 Norte 0 1016.8 -1.6 74
2019-09-14 03:00:00 21.1 14 Norte 22 Nordeste 0 1017.4 -1.2 72
2019-09-14 02:00:00 20.9 15 Norte 23 Norte 0 1017.9 -0.7 71
2019-09-14 01:00:00 21.3 16 Norte 24 Nordeste 0 1018.4 0.2 75
2019-09-14 00:00:00 21.3 14 Norte 19 Norte 0 1018.6 0.7 77
2019-09-13 23:00:00 22.9 11 Nordeste 22 Nordeste 0 1018.6 1.2 69
2019-09-13 22:00:00 23.1 10 Nordeste 22 Este 0 1018.2 0.6 68
2019-09-13 21:00:00 23.9 19 Este 28 Este 0 1017.9 0.8 69
2019-09-13 20:00:00 24.6 19 Este 27 Este 0 1017.4 0 65
2019-09-13 19:00:00 24.6 17 Este 32 Este 0 1017.6 0.4 65
2019-09-13 18:00:00 25 22 Este 32 Este 0 1017.1 0 59
2019-09-13 17:00:00 23.5 16 Nordeste 26 Nordeste 0 1017.4 -0.2 68
2019-09-13 16:00:00 24.5 15 Nordeste 32 Sudeste 0.7 1017.2 -0.8 59
2019-09-13 15:00:00 27.1 18 Sudeste 25 Sudeste 0 1017.1 -1.5 51
2019-09-13 14:00:00 26.7 4 Nordeste 30 Este 0 1017.6 -0.8 49
2019-09-13 13:00:00 27 13 Este 27 Este 0 1018 -0.2 53
2019-09-13 12:00:00 23 10 Norte 15 Norte 0 1018.6 0.4 66
2019-09-13 11:00:00 21.3 8 Nordeste 13 Este 0 1018.4 0.3 66
2019-09-13 10:00:00 20.7 4 Este 12 Nordeste 0 1018.2 0.8 67
2019-09-13 09:00:00 19.7 5 Norte 14 Nordeste 0 1018.2 0.4 69
2019-09-13 08:00:00 20 9 Nordeste 13 Nordeste 0 1018.1 -0.1 70
2019-09-13 07:00:00 20.3 6 Nordeste 14 Nordeste 0 1017.4 -1.7 68
2019-09-13 06:00:00 20.7 13 Nordeste 18 Nordeste 0 1017.8 -1.4 70
2019-09-13 05:00:00 21.4 10 Este 29 Este 0 1018.2 -1.4 70
2019-09-13 04:00:00 21.5 16 Este 27 Este 0 1019.1 -0.9 68
2019-09-13 03:00:00 21.9 18 Este 27 Sudeste 0 1019.2 -1.2 63
2019-09-13 02:00:00 22.5 22 Sudeste 29 Sudeste 0 1019.6 -0.9 60
2019-09-13 01:00:00 22.7 7 Nordeste 23 Este 0 1020 -0.5 56
2019-09-13 00:00:00 23 9 Este 25 Este 0 1020.4 0.6 57
2019-09-12 23:00:00 23.1 6 Este 18 Este 0 1020.5 0.7 55
2019-09-12 22:00:00 23.6 6 Este 25 Este 0 1020.5 0.9 52
2019-09-12 21:00:00 24.4 18 Este 32 Este 0 1019.8 0.1 50
2019-09-12 20:00:00 25.7 9 Este 36 Este 0 1019.8 0.1 46
2019-09-12 19:00:00 26.5 24 Este 32 Este 0 1019.6 -0.6 49
2019-09-12 18:00:00 25.3 10 Sudoeste 23 Sudoeste 0 1019.7 -0.7 56
2019-09-12 17:00:00 25.3 18 Sudoeste 24 Sudoeste 0 1019.7 -0.9 56
2019-09-12 16:00:00 25 12 Oeste 17 Sudoeste 0 1020.2 -0.7 55
2019-09-12 15:00:00 24.9 11 Sudoeste 22 Sudoeste 0 1020.4 -0.5 54
2019-09-12 14:00:00 25 6 Sudeste 12 Norte 0 1020.6 -0.2 47
2019-09-12 13:00:00 22.9 8 Noroeste 13 Noroeste 0 1020.9 0.6 57
2019-09-12 12:00:00 21.3 9 Norte 17 Norte 0 1020.9 1 64
2019-09-12 11:00:00 20.4 6 Norte 12 Este 0 1020.8 1.5 64
2019-09-12 10:00:00 20.5 9 Este 14 Este 0 1020.3 0.8 61
2019-09-12 09:00:00 19.1 5 Nordeste 19 Nordeste 0 1019.9 1 61
2019-09-12 08:00:00 20 9 Norte 13 Nordeste 0 1019.3 0.3 62
2019-09-12 07:00:00 19.9 8 Nordeste 15 Nordeste 0 1019.5 0.6 61
2019-09-12 06:00:00 20.1 7 Nordeste 26 Este 0 1018.9 0.4 66
2019-09-12 05:00:00 20.6 11 Este 26 Este 0 1019 0.1 63
2019-09-12 04:00:00 21 13 Este 28 Este 0 1018.9 -0.1 56
2019-09-12 03:00:00 22 15 Norte 24 Nordeste 0 1018.5 -0.7 64
2019-09-12 02:00:00 21.6 13 Norte 20 Norte 0 1018.9 -0.2 68
2019-09-12 01:00:00 22.3 15 Norte 21 Norte 0 1019 0.7 69
2019-09-12 00:00:00 22.5 15 Noroeste 22 Noroeste 0 1019.2 1.4 66
2019-09-11 23:00:00 22.6 12 Noroeste 27 Noroeste 0 1019.1 1.7 61
2019-09-11 22:00:00 22.9 18 Noroeste 32 Oeste 0 1018.3 1.5 62
2019-09-11 21:00:00 23 18 Noroeste 34 Oeste 0 1017.8 1 63
2019-09-11 20:00:00 25.2 16 Noroeste 32 Nordeste 0 1017.4 0.5 60
2019-09-11 19:00:00 27.8 26 Nordeste 38 Nordeste 0 1016.8 -0.6 33
2019-09-11 18:00:00 27.4 27 Nordeste 40 Norte 0 1016.8 -1.3 32
2019-09-11 17:00:00 26.7 23 Norte 39 Norte 0 1016.9 -1.7 34
2019-09-11 16:00:00 25.9 20 Norte 40 Norte 0 1017.4 -1.6 37
2019-09-11 15:00:00 25.4 25 Nordeste 37 Nordeste 0 1018.1 -1.3 35
2019-09-11 14:00:00 24.3 21 Norte 35 Nordeste 0 1018.6 -0.7 39
2019-09-11 13:00:00 23.4 24 Nordeste 37 Norte 0 1019 -0.2 40
2019-09-11 12:00:00 22.3 23 Nordeste 34 Nordeste 0 1019.4 0.7 44
2019-09-11 11:00:00 21.1 22 Nordeste 36 Nordeste 0 1019.3 1.3 46
2019-09-11 10:00:00 19.4 8 Norte 12 Norte 0 1019.2 2.1 82
2019-09-11 09:00:00 17.9 6 Norte 10 Nordeste 0 1018.7 2.7 88
2019-09-11 08:00:00 17.9 7 Nordeste 14 Este 0 1018 1.7 89
2019-09-11 07:00:00 17.8 9 Nordeste 15 Nordeste 0 1017.1 0.4 89
2019-09-11 06:00:00 18.2 5 Norte 10 Nordeste 0 1016 -0.8 89
2019-09-11 05:00:00 19.2 6 Nordeste 10 Nordeste 0 1016.3 -0.6 89
2019-09-11 04:00:00 19.6 7 Nordeste 11 Nordeste 0 1016.7 -0.3 87
2019-09-11 03:00:00 20.4 3 Oeste 6 Oeste 0 1016.8 0.1 82
2019-09-11 02:00:00 20.9 5 Este 10 Sudeste 0 1016.9 0.6 80
2019-09-11 01:00:00 21.7 3 Este 17 Nordeste 0 1017 0.8 76
2019-09-11 00:00:00 23.2 11 Noroeste 23 Oeste 0 1016.7 1.1 61
2019-09-10 23:00:00 22.4 18 Oeste 29 Oeste 0 1016.3 1.1 73
2019-09-10 22:00:00 22.1 16 Oeste 35 Oeste 0 1016.2 0.9 71
2019-09-10 21:00:00 22.1 17 Oeste 40 Oeste 0 1015.6 -0.1 66
2019-09-10 20:00:00 22.7 26 Oeste 41 Oeste 0 1015.2 -1.2 62
2019-09-10 19:00:00 23.6 20 Oeste 35 Oeste 0 1015.3 -1 55
2019-09-10 18:00:00 24.2 22 Oeste 37 Oeste 0 1015.7 -1.2 49
2019-09-10 17:00:00 23.2 22 Oeste 37 Oeste 0 1016.4 -1.1 50
2019-09-10 16:00:00 22.6 23 Oeste 40 Noroeste 0 1016.3 -1.7 51
2019-09-10 15:00:00 22.1 24 Oeste 40 Noroeste 0 1016.9 -1 55
2019-09-10 14:00:00 21.3 27 Oeste 43 Oeste 0 1017.5 -0.6 62
2019-09-10 13:00:00 21.4 26 Noroeste 42 Noroeste 0 1018 0.2 67
2019-09-10 12:00:00 21 26 Noroeste 44 Noroeste 0 1017.9 0.9 68
2019-09-10 11:00:00 20.3 25 Noroeste -- -- -- 1018.1 1.3 71
2019-09-10 10:00:00 19.8 28 Noroeste 44 Noroeste 0 1017.8 1.3 73
2019-09-10 09:00:00 19.3 23 Noroeste 39 Noroeste 0 1017 0.8 75
2019-09-10 08:00:00 19.4 24 Noroeste 37 Noroeste 0 1016.8 0.3 76
2019-09-10 07:00:00 20 24 Noroeste 42 Noroeste 0 1016.5 -0.3 71
2019-09-10 06:00:00 21 24 Noroeste 37 Noroeste 0 1016.2 -0.9 67
2019-09-10 05:00:00 21.6 24 Noroeste 36 Noroeste 0 1016.5 -0.7 65
2019-09-10 04:00:00 22.8 17 Noroeste 33 Noroeste 0 1016.8 -0.7 66
2019-09-10 03:00:00 23.6 20 Noroeste 29 Noroeste 0 1017.1 -0.5 61
2019-09-10 02:00:00 23.9 19 Noroeste 29 Noroeste 0 1017.2 -0.3 75
2019-09-10 01:00:00 23.9 18 Noroeste 31 Oeste 0 1017.5 0 76
2019-09-10 00:00:00 24.3 21 Oeste 31 Oeste 0 1017.6 0.9 72
2019-09-09 23:00:00 23.9 13 Oeste 31 Noroeste 0 1017.5 1 70
2019-09-09 22:00:00 23.8 18 Oeste 33 Oeste 0 1017.5 1 72
2019-09-09 21:00:00 23.8 19 Oeste 31 Oeste 0 1016.7 0.2 73
2019-09-09 20:00:00 24.5 20 Oeste 34 Oeste 0 1016.5 -0.2 75
2019-09-09 19:00:00 25.6 20 Oeste 32 Oeste 0 1016.5 -0.5 69
2019-09-09 18:00:00 26.4 22 Oeste 30 Oeste 0 1016.5 -1.2 64
2019-09-09 17:00:00 25.2 21 Oeste 29 Oeste 0 1016.7 -1.5 72
2019-09-09 16:00:00 25.6 17 Oeste 25 Oeste 0 1017 -1.6 69
2019-09-09 15:00:00 25.2 16 Oeste 22 Oeste 0 1017.7 -1.2 70
2019-09-09 14:00:00 26.6 12 Oeste 18 Oeste 0 1018.2 -0.4 63
2019-09-09 13:00:00 26 6 Norte 10 Noroeste 0 1018.6 0.3 64
2019-09-09 12:00:00 25.2 8 Noroeste 10 Noroeste 0 1018.9 1.2 66
2019-09-09 11:00:00 24.6 3 Norte 8 Norte 0 1018.6 1.3 69
2019-09-09 10:00:00 22.8 4 Nordeste 9 Nordeste 0 1018.3 1.3 72
2019-09-09 09:00:00 21.4 5 Nordeste 8 Nordeste 0 1017.7 0.8 75
2019-09-09 08:00:00 21 6 Norte 8 Norte 0 1017.3 -0.1 77
2019-09-09 07:00:00 21.6 6 Norte 14 Nordeste 0 1017 -0.4 72
2019-09-09 06:00:00 21.6 4 Nordeste 10 Nordeste 0 1016.9 -0.7 73
2019-09-09 05:00:00 21.8 5 Nordeste 12 Nordeste 0 1017.4 -0.1 68
2019-09-09 04:00:00 22.4 7 Nordeste 12 Nordeste 0 1017.4 -0.3 67
2019-09-09 03:00:00 22.6 8 Nordeste 11 Norte 0 1017.6 0 69
2019-09-09 02:00:00 23.1 4 Este 10 Nordeste 0 1017.5 -0.2 74
2019-09-09 01:00:00 23.2 3 Este 6 Sur 0 1017.7 -0.2 71
2019-09-09 00:00:00 23.8 4 Sur 11 Este 0 1017.6 1.2 71
2019-09-08 23:00:00 24.1 8 Este 25 Sudeste 0 1017.7 1.4 69
2019-09-08 22:00:00 24.5 20 Este 33 Sudeste 0 1017.9 2.2 70
2019-09-08 21:00:00 25.1 21 Sudeste 31 Sudeste 0 1016.4 0.8 69
2019-09-08 20:00:00 24.9 9 Sur 29 Sur 0 1016.3 1 76
2019-09-08 19:00:00 24.4 17 Sur 29 Sur 0 1015.7 -0.2 75
2019-09-08 18:00:00 24.2 19 Sur 39 Sur 0 1015.6 -0.6 75
2019-09-08 17:00:00 25.4 19 Sur 33 Sur 0 1015.3 -1 72
2019-09-08 16:00:00 27.7 13 Sudeste 31 Sudeste 0 1015.9 -0.4 64
2019-09-08 15:00:00 26.5 25 Sudeste 34 Sudeste 0 1016.2 0.1 64
2019-09-08 14:00:00 26.5 24 Sudeste 35 Sudeste 0 1016.3 0.9 64
2019-09-08 13:00:00 26.5 23 Sudeste 36 Sudeste 0 1016.3 1.1 62
2019-09-08 12:00:00 26.1 21 Sudeste 28 Sudeste 0 1016.1 1 63
2019-09-08 11:00:00 25.8 21 Este 29 Este 0 1015.4 0.6 64
2019-09-08 10:00:00 24.8 17 Este 25 Este 0 1015.2 0.5 69
2019-09-08 09:00:00 24 7 Nordeste 18 Nordeste 0 1015.1 0.6 65
2019-09-08 08:00:00 23.4 11 Nordeste 26 Este 0 1014.8 0.5 69
2019-09-08 07:00:00 23.9 23 Este 34 Este 0 1014.7 0.5 72
2019-09-08 06:00:00 23.9 21 Este 27 Este 0 1014.5 0.2 72
2019-09-08 05:00:00 24.2 18 Este 41 Sudeste 0 1014.3 -0.3 71
2019-09-08 04:00:00 24.4 26 Sudeste 36 Sudeste 0 1014.2 -0.5 68
2019-09-08 03:00:00 24.5 27 Sudeste 45 Sudeste 0 1014.3 -0.7 70
2019-09-08 02:00:00 24.7 34 Sudeste 45 Sudeste 0 1014.6 -0.5 67
2019-09-08 01:00:00 24.7 34 Sudeste 55 Sudeste 0 1014.7 0.4 71
2019-09-08 00:00:00 24.9 40 Sudeste 58 Sudeste 0 1015 1.7 71
2019-09-07 23:00:00 25 41 Sudeste 53 Sudeste 0 1015.1 1.7 70
2019-09-07 22:00:00 25.4 32 Sudeste 49 Sudeste 0 1014.3 1.2 65
2019-09-07 21:00:00 26.5 35 Sudeste 48 Sudeste 0 1013.3 0.3 55
2019-09-07 20:00:00 27.5 35 Sudeste 48 Sudeste 0 1013.4 -0.2 53
2019-09-07 19:00:00 28.1 31 Sudeste 45 Este 0 1013.1 -1 53
2019-09-07 18:00:00 28.7 39 Este 54 Sudeste 0 1013 -1.7 48
2019-09-07 17:00:00 28.7 40 Sudeste 55 Este 0 1013.6 -0.9 49
2019-09-07 16:00:00 28.4 38 Este 54 Este 0 1014.1 -0.5 53
2019-09-07 15:00:00 29.1 36 Este 52 Este 0 1014.7 -0.1 51
2019-09-07 14:00:00 28.6 41 Este 57 Este 0 1014.5 -0.3 51
2019-09-07 13:00:00 28.4 33 Este 56 Este 0 1014.6 0 51
2019-09-07 12:00:00 27.6 40 Este 59 Sudeste 0 1014.8 0.4 50
2019-09-07 11:00:00 26.9 34 Este 51 Sudeste 0 1014.8 0.6 55
2019-09-07 10:00:00 25.5 32 Este 44 Este 0 1014.6 0.4 65
2019-09-07 09:00:00 24.7 29 Este 41 Este 0 1014.4 0.2 72
2019-09-07 08:00:00 24.4 29 Este 41 Este 0 1014.2 -0.1 73
2019-09-07 07:00:00 24.3 25 Este 34 Este 0 1014.2 -0.2 74
2019-09-07 06:00:00 24.4 27 Este 38 Este 0 1014.2 -0.5 75
2019-09-07 05:00:00 24.5 28 Este 37 Este 0 1014.3 -0.3 69
2019-09-07 04:00:00 24.4 23 Este 31 Este 0 1014.4 0.2 67
2019-09-07 03:00:00 24.6 18 Este 35 Este 0 1014.7 0.7 61
2019-09-07 02:00:00 24.4 26 Este 48 Este 0 1014.6 0.7 68
2019-09-07 01:00:00 25 35 Este 43 Este 0 1014.2 0.9 64
2019-09-07 00:00:00 25.3 32 Sudeste 46 Sudeste 0 1014 1.3 59
2019-09-06 23:00:00 26.2 31 Sudeste 40 Sudeste 0 1013.9 1.1 52
2019-09-06 22:00:00 26.7 27 Este 40 Este 0 1013.3 0.3 51
2019-09-06 21:00:00 27.4 27 Sudeste 42 Este 0 1012.7 -0.1 47
2019-09-06 20:00:00 28.9 33 Este 47 Este 0 1012.8 -0.4 42
2019-09-06 19:00:00 29.8 27 Este 44 Este 0 1013 -0.9 43
2019-09-06 18:00:00 30.1 31 Sudeste 42 Este 0 1012.8 -1.9 45
2019-09-06 17:00:00 30.5 32 Sudeste 40 Sudeste 0 1013.2 -1.8 47
2019-09-06 16:00:00 30.5 32 Sudeste 44 Este 0 1013.9 -1.3 47
2019-09-06 15:00:00 30.1 36 Este 46 Este 0 1014.7 -0.6 46
2019-09-06 14:00:00 29.7 33 Este 48 Este 0 1015 -0.1 50
2019-09-06 13:00:00 28.8 37 Este 49 Este 0 1015.2 0.4 52
2019-09-06 12:00:00 28.2 37 Este 50 Este 0 1015.3 0.4 56
2019-09-06 11:00:00 26.9 37 Este 50 Este 0 1015.1 0.3 62
2019-09-06 10:00:00 25.8 31 Este 41 Este 0 1014.8 0.7 67
2019-09-06 09:00:00 24.9 23 Este 34 Este 0 1014.9 1.1 71
2019-09-06 08:00:00 24.5 22 Este 40 Este 0 1014.8 1.1 73
2019-09-06 07:00:00 24.6 26 Este 43 Este 0 1014.1 0.2 72
2019-09-06 06:00:00 24.9 31 Este 45 Este 0 1013.8 -1 68
2019-09-06 05:00:00 25.1 31 Este 46 Este 0 1013.7 -1 64
2019-09-06 04:00:00 25 32 Sudeste 42 Sudeste 0 1013.9 -0.8 69
2019-09-06 03:00:00 25.2 30 Sudeste 41 Este 0 1014.8 -0.2 65
2019-09-06 02:00:00 25.3 24 Sudeste 36 Este 0 1014.7 -0.2 59
2019-09-06 01:00:00 25.3 26 Sudeste 35 Sudeste 0 1014.7 0.3 60
2019-09-06 00:00:00 25.3 22 Sudeste 30 Sudeste 0 1015 0.8 69
2019-09-05 23:00:00 25.6 18 Sudeste 29 Sudeste 0 1014.9 0.7 70
2019-09-05 22:00:00 24 0 Calma 8 Oeste 0 1014.4 0.2 81
2019-09-05 21:00:00 24.1 4 Oeste 12 Oeste 0 1014.2 -0.2 81
2019-09-05 20:00:00 25.2 6 Sudoeste 18 Sudoeste 0 1014.2 -0.6 76
2019-09-05 19:00:00 25.8 7 Sudoeste 18 Sudoeste 0 1014.2 -0.9 73
2019-09-05 18:00:00 25.9 10 Sudoeste 23 Sudoeste 0 1014.4 -1.4 75
2019-09-05 17:00:00 25.7 13 Sudoeste 24 Sur 0 1014.8 -1.2 76
2019-09-05 16:00:00 25.8 14 Sudoeste 24 Sur 0 1015.1 -1.1 75
2019-09-05 15:00:00 25.3 17 Sur 26 Sur 0 1015.8 -0.6 77
2019-09-05 14:00:00 25.3 13 Sur 24 Sur 0 1016 0.1 78
2019-09-05 13:00:00 25.2 11 Sur 23 Sur 0 1016.2 0.6 77
2019-09-05 12:00:00 24.8 13 Sur 24 Sur 0 1016.4 1 79
2019-09-05 11:00:00 24.5 15 Sur 24 Sur 0 1015.9 0.7 81
2019-09-05 10:00:00 23.8 10 Sur 21 Sur 0 1015.6 1.1 84
2019-09-05 09:00:00 23 11 Sur 21 Sur 0 1015.4 1.1 88
2019-09-05 08:00:00 22.8 13 Sur 23 Sur 0 1015.2 0.9 90
2019-09-05 07:00:00 22.9 13 Sur 22 Sur 0 1014.5 0.1 90
2019-09-05 06:00:00 23.9 6 Sur 13 Sudeste 0 1014.3 -0.6 72
2019-09-05 05:00:00 24 7 Sudeste 11 Sudeste 0 1014.3 -1.4 77
2019-09-05 04:00:00 24.2 3 Este 7 Sudeste 0 1014.4 -1.6 84
2019-09-05 03:00:00 24.1 5 Norte 7 Norte 0 1014.9 -1.1 86
2019-09-05 02:00:00 24.2 3 Norte 10 Norte 0 1015.7 -0.5 86
2019-09-05 01:00:00 24.1 8 Norte 11 Norte 0 1016 -0.1 86
2019-09-05 00:00:00 24.7 0 Calma 5 Norte 0 1016 -0.2 77
2019-09-04 23:00:00 24.7 0 Calma 8 Noroeste 0 1016.2 0 81
2019-09-04 22:00:00 24.7 6 Oeste 14 Oeste 0 1016.1 -0.1 81
2019-09-04 21:00:00 24.8 8 Oeste 18 Oeste 0 1016.2 -0.1 78
2019-09-04 20:00:00 25.2 12 Oeste 21 Oeste 0 1016.2 -0.4 79
2019-09-04 19:00:00 26.1 15 Sudoeste 26 Sudoeste 0 1016.2 -1 73
2019-09-04 18:00:00 26.3 16 Sudoeste 28 Sudoeste 0 1016.3 -1.5 72
2019-09-04 17:00:00 26.8 16 Sudoeste 27 Sudoeste 0 1016.6 -1.3 69
2019-09-04 16:00:00 28.4 12 Oeste 20 Sudoeste 0 1017.2 -0.8 64
2019-09-04 15:00:00 28.3 12 Sudoeste 19 Oeste 0 1017.8 -0.4 63
2019-09-04 14:00:00 27.7 15 Sudoeste 23 Oeste 0 1017.9 -0.2 64
2019-09-04 13:00:00 28.1 12 Oeste 21 Sudoeste 0 1018 0.1 62
2019-09-04 12:00:00 29.7 9 Sudeste 15 Este 0 1018.2 0.5 53
2019-09-04 11:00:00 28.1 14 Este 22 Este 0 1018.1 0.7 59
2019-09-04 10:00:00 26.4 7 Este 13 Este 0 1017.9 0.7 60
2019-09-04 09:00:00 25.1 7 Este 17 Sudeste 0 1017.7 0.6 66
2019-09-04 08:00:00 24.4 10 Este 21 Este 0 1017.4 0 71
2019-09-04 07:00:00 24.4 5 Sudeste 32 Sudeste 0 1017.2 -0.7 71
2019-09-04 06:00:00 24 8 Este 22 Este 0 1017.1 -0.5 74
2019-09-04 05:00:00 24.4 8 Este 18 Este 0 1017.4 -0.3 75
2019-09-04 04:00:00 24.7 15 Este 29 Este 0 1017.9 0.4 75
2019-09-04 03:00:00 25 9 Este 37 Este 0 1017.6 -0.4 72
2019-09-04 02:00:00 25.2 28 Sudeste 47 Sudeste 0 1017.7 -0.4 74
2019-09-04 01:00:00 25.3 33 Sudeste 55 Sudeste 0 1017.5 0.3 75
2019-09-04 00:00:00 25.6 22 Este 35 Este 0 1018 1.2 71
2019-09-03 23:00:00 26 12 Este 32 Sudeste 0 1018.1 1.4 69
2019-09-03 22:00:00 26.6 26 Este 45 Este 0 1017.2 0.5 65
2019-09-03 21:00:00 27.7 28 Este 40 Este 0 1016.8 0.1 59
2019-09-03 20:00:00 29.5 30 Sudeste 41 Sudeste 0 1016.7 -0.4 50
2019-09-03 19:00:00 30.2 26 Este 38 Este 0 1016.7 -0.9 48
2019-09-03 18:00:00 31 25 Este 40 Este 0 1016.7 -1.4 48
2019-09-03 17:00:00 31.1 24 Este 32 Sudeste 0 1017.1 -1.4 47
2019-09-03 16:00:00 31.5 21 Este 39 Este 0 1017.6 -1.1 48
2019-09-03 15:00:00 31.1 25 Este 41 Este 0 1018.1 -0.6 48
2019-09-03 14:00:00 30.7 31 Este 44 Este 0 1018.5 0.2 50
2019-09-03 13:00:00 29.8 30 Sudeste 42 Sudeste 0 1018.7 0.8 54
2019-09-03 12:00:00 29.1 27 Este 40 Este 0 1018.7 1.2 60
2019-09-03 11:00:00 27.7 28 Este 46 Este 0 1018.3 1.3 64
2019-09-03 10:00:00 26.2 23 Este 33 Este 0 1017.9 1.2 71
2019-09-03 09:00:00 25.2 21 Este 31 Este 0 1017.5 0.8 75
2019-09-03 08:00:00 24.7 22 Este 35 Este 0 1017 0.2 76
2019-09-03 07:00:00 24.7 26 Este 34 Este 0 1016.7 -0.1 76
2019-09-03 06:00:00 24.1 10 Este 20 Este 0 1016.7 -0.2 73
2019-09-03 05:00:00 23.7 3 Este 9 Nordeste 0 1016.8 0.2 75
2019-09-03 04:00:00 24.1 6 Nordeste 15 Nordeste 0 1016.8 0.7 73
2019-09-03 03:00:00 24.3 8 Nordeste 18 Norte 0 1016.9 1 75
2019-09-03 02:00:00 24.9 13 Norte 26 Este 0 1016.6 0.8 72
2019-09-03 01:00:00 25.6 10 Nordeste 26 Este 0 1016.1 0.8 62
2019-09-03 00:00:00 26 8 Este 32 Este 0 1015.9 1.2 68
2019-09-02 23:00:00 26.4 15 Este 37 Este 0 1015.8 1.3 65
2019-09-02 22:00:00 26.8 28 Este 42 Este 0 1015.3 1.3 65
2019-09-02 21:00:00 27.5 27 Sudeste 39 Sudeste 0 1014.7 0.5 60
2019-09-02 20:00:00 29 15 Sudeste 25 Sudeste 0 1014.5 0 55
2019-09-02 19:00:00 29.5 15 Sudeste 24 Este 0 1014 -0.8 55
2019-09-02 18:00:00 28 8 Noroeste 15 Oeste 0 1014.2 -0.5 60
2019-09-02 17:00:00 28.9 12 Oeste 20 Oeste 0 1014.5 -0.4 55
2019-09-02 16:00:00 28.8 12 Sudoeste 21 Oeste 0 1014.8 -0.1 57
2019-09-02 15:00:00 29.2 10 Oeste 21 Sudoeste 0 1014.7 -0.1 57
2019-09-02 14:00:00 28.5 13 Oeste 18 Sudoeste 0 1014.9 0.3 59
2019-09-02 13:00:00 28.1 6 Oeste 19 Norte 0 1014.9 0.7 65
2019-09-02 12:00:00 26.9 2 Norte 7 Noroeste 0 1014.8 0.9 63
2019-09-02 11:00:00 24.5 0 Calma 7 Sur 0 1014.6 0.8 78
2019-09-02 10:00:00 23.9 2 Sur 10 Sur 0 1014.2 1 81
2019-09-02 09:00:00 23.1 10 Sudeste 15 Sur 0 1013.9 1 83
2019-09-02 08:00:00 22 4 Sur 20 Sur 0 1013.8 1.3 89
2019-09-02 07:00:00 22.4 10 Sur 19 Sur 0 1013.2 0.5 85
2019-09-02 06:00:00 22.8 3 Sur 9 Sur 0 1012.9 -0.4 82
2019-09-02 05:00:00 23.4 4 Norte 7 Norte 0 1012.5 -0.6 84
2019-09-02 04:00:00 23.7 3 Sudeste 5 Norte 0 1012.7 -0.4 82
2019-09-02 03:00:00 23.7 0 Calma 7 Norte 0 1013.3 0.1 82
2019-09-02 02:00:00 23.9 4 Norte 7 Norte 0 1013.1 -0.3 87
2019-09-02 01:00:00 24.1 6 Norte 9 Norte 0 1013.1 0 81
2019-09-02 00:00:00 24.5 6 Noroeste 7 Noroeste 0 1013.2 0.8 69
2019-09-01 23:00:00 24.3 0 Calma 7 Norte 0 1013.4 1 79
2019-09-01 22:00:00 24.4 7 Noroeste 22 Noroeste 0 1013.1 0.5 73
2019-09-01 21:00:00 25 15 Noroeste 24 Noroeste 0 1012.4 -0.3 65
2019-09-01 20:00:00 24.3 17 Noroeste 24 Noroeste 0 1012.4 -0.5 84
2019-09-01 19:00:00 24.8 15 Oeste 22 Noroeste 0 1012.6 -0.9 79
2019-09-01 18:00:00 24.7 14 Oeste 23 Oeste 0 1012.7 -1.4 79
2019-09-01 17:00:00 25.1 12 Oeste 20 Oeste 0 1012.9 -1.4 76
2019-09-01 16:00:00 26.8 12 Sudoeste 21 Oeste 0 1013.5 -1.3 66
2019-09-01 15:00:00 25.8 15 Oeste 23 Oeste 0 1014.1 -0.9 72
2019-09-01 14:00:00 25.5 14 Oeste 23 Sudoeste 0 1014.3 -0.7 75
2019-09-01 13:00:00 24.9 12 Sudoeste 22 Sudoeste 0 1014.8 0.1 77
2019-09-01 12:00:00 24.3 8 Sudoeste 16 Sudoeste 0 1015 0.6 80
2019-09-01 11:00:00 23.3 6 Sur 17 Sur 0 1015 1 86
2019-09-01 10:00:00 23.3 4 Sudeste 21 Sur 0 1014.7 0.8 86
2019-09-01 09:00:00 22.2 15 Sur 22 Sudeste 0 1014.4 1 91
2019-09-01 08:00:00 21.6 11 Sur 25 Sur 0 1014 0.3 93
2019-09-01 07:00:00 22.6 14 Sudeste 20 Sudeste 0 1013.9 -0.3 85
2019-09-01 06:00:00 21.6 4 Sur 14 Sur 0 1013.4 -0.9 93
2019-09-01 05:00:00 22.1 7 Sur 15 Sur 0 1013.7 -0.8 91
2019-09-01 04:00:00 23 5 Sudoeste 9 Sudoeste 0 1014.2 -0.3 86
2019-09-01 03:00:00 23.3 0 Calma 7 Sur 0 1014.3 -0.3 82
2019-09-01 02:00:00 23.5 5 Sudoeste 8 Sur 0 1014.5 0 80
2019-09-01 01:00:00 23.6 0 Calma 5 Oeste 0 1014.5 0.2 80
2019-09-01 00:00:00 23.8 0 Calma 6 Sudoeste 0 1014.6 0.8 80
2019-08-31 23:00:00 23.8 3 Sudoeste 14 Oeste 0 1014.5 0.7 79
2019-08-31 22:00:00 24.1 5 Oeste 19 Sudoeste 0 1014.3 0.7 79
2019-08-31 21:00:00 24.4 13 Sudoeste 22 Sudoeste 0 1013.8 0.3 78
2019-08-31 20:00:00 25.4 13 Sudoeste 20 Sudoeste 0 1013.8 -0.2 72
2019-08-31 19:00:00 26.8 11 Oeste 21 Sudoeste 0 1013.6 -0.7 67
2019-08-31 18:00:00 27 10 Oeste 24 Sur 0 1013.5 -1.5 65
2019-08-31 17:00:00 27.5 12 Sudoeste 28 Sur 0 1014 -1.9 60
2019-08-31 16:00:00 27.6 15 Sudoeste 26 Sur 0 1014.3 -1.8 60
2019-08-31 15:00:00 27.5 10 Sudoeste 25 Sur 0 1015 -1.2 61
2019-08-31 14:00:00 29.1 12 Sur 17 Sudoeste 0 1015.9 -0.5 52
2019-08-31 13:00:00 29.2 9 Sudoeste 14 Sudoeste 0 1016.1 0.1 54
2019-08-31 12:00:00 27.8 4 Sudoeste 13 Sudoeste 0 1016.2 0.6 57
2019-08-31 11:00:00 25.9 7 Sur 18 Este 0 1016.4 1.2 63
2019-08-31 10:00:00 25.7 15 Este 23 Este 0 1016 1.4 61
2019-08-31 09:00:00 24.8 4 Este 11 Este 0 1015.6 0.7 65
2019-08-31 08:00:00 24.1 5 Este 13 Este 0 1015.2 0.5 64
2019-08-31 07:00:00 23.8 5 Nordeste 9 Nordeste 0 1014.6 -0.9 72
2019-08-31 06:00:00 24 7 Este 12 Sudeste 0 1014.9 -1 74
2019-08-31 05:00:00 24 7 Nordeste 14 Nordeste 0 1014.7 -1.4 72
2019-08-31 04:00:00 24.3 12 Nordeste 18 Nordeste 0 1015.5 -0.6 66
2019-08-31 03:00:00 25 5 Nordeste 20 Este 0 1015.9 -0.3 65
2019-08-31 02:00:00 25 5 Este 23 Sudeste 0 1016.1 0.2 62
2019-08-31 01:00:00 25.7 14 Sudeste 24 Este 0 1016.1 0.2 60
2019-08-31 00:00:00 26.3 17 Sudeste 24 Sudeste 0 1016.2 0.9 57
2019-08-30 23:00:00 27 16 Este 21 Este 0 1015.9 0.9 51
2019-08-30 22:00:00 27.6 15 Sudeste 22 Sudeste 0 1015.9 0.6 49
2019-08-30 21:00:00 25.2 8 Norte 14 Norte 0 1015.3 -0.3 76
2019-08-30 20:00:00 25.7 7 Norte 10 Sudoeste 0 1015 -1.3 77
2019-08-30 19:00:00 28.3 8 Oeste 12 Oeste 0 1015.3 -1.8 57
2019-08-30 18:00:00 29.6 7 Oeste 12 Oeste 0 1015.6 -2 51
2019-08-30 17:00:00 28.8 8 Oeste 14 Oeste 0 1016.3 -1.7 55
2019-08-30 16:00:00 27.7 8 Oeste 14 Oeste 0 1017.1 -1.3 57
2019-08-30 15:00:00 28 10 Oeste 20 Oeste 0 1017.6 -0.8 61
2019-08-30 14:00:00 27.8 12 Sudoeste 22 Sudoeste 0 1018 -0.3 58
2019-08-30 13:00:00 27.2 14 Sudoeste 19 Sudoeste 0 1018.4 0.3 54
2019-08-30 12:00:00 27.6 9 Sudoeste 23 Sudeste 0 1018.4 0.3 52
2019-08-30 11:00:00 27.9 15 Este 22 Este 0 1018.3 0.5 58
2019-08-30 10:00:00 25.8 7 Nordeste 14 Nordeste 0 1018.1 0.4 59
2019-08-30 09:00:00 24.5 5 Este 17 Este 0 1018.1 0.5 61
2019-08-30 08:00:00 23.2 5 Nordeste 12 Nordeste 0 1017.8 0.3 64
2019-08-30 07:00:00 23.8 8 Nordeste 18 Nordeste 0 1017.7 0 57
2019-08-30 06:00:00 24.2 12 Nordeste 19 Nordeste 0 1017.6 -0.6 58
2019-08-30 05:00:00 24.3 11 Nordeste 17 Nordeste 0 1017.5 -0.3 62
2019-08-30 04:00:00 24.6 6 Nordeste 15 Este 0 1017.7 -0.2 63
2019-08-30 03:00:00 24.9 8 Nordeste 27 Sudeste 0 1018.2 0.2 62
2019-08-30 02:00:00 25.3 16 Sudeste 23 Sudeste 0 1017.8 0.1 57
2019-08-30 01:00:00 25.9 17 Sudeste 33 Sudeste 0 1017.9 0.3 58
2019-08-30 00:00:00 25.5 17 Sudeste 35 Sudeste 0 1018 1 58
2019-08-29 23:00:00 26.5 24 Sudeste 36 Sudeste 0 1017.7 0.9 52
2019-08-29 22:00:00 27.1 22 Sudeste 35 Sudeste 0 1017.6 0.7 52
2019-08-29 21:00:00 28.5 24 Sudeste 32 Sudeste 0 1017 0.2 48
2019-08-29 20:00:00 30 27 Sudeste 36 Sudeste 0 1016.8 -0.2 47
2019-08-29 19:00:00 30.5 31 Sudeste 37 Sudeste 0 1016.9 -0.5 43
2019-08-29 18:00:00 30.8 19 Sudeste 28 Sudeste 0 1016.8 -1.1 44
2019-08-29 17:00:00 28.8 5 Sur 23 Oeste 0 1017 -0.8 56
2019-08-29 16:00:00 29.2 3 Noroeste 15 Sudoeste 0 1017.4 0.2 53
2019-08-29 15:00:00 29 9 Sudoeste 27 Sudoeste 0 1017.9 0.7 54
2019-08-29 14:00:00 30.1 5 Sudoeste 27 Este 0 1017.8 0.8 45
2019-08-29 13:00:00 30.3 21 Este 39 Sudeste 0 1017.2 0.8 49
2019-08-29 12:00:00 29.6 30 Este 41 Este 0 1017.2 0.9 45
2019-08-29 11:00:00 29 5 Este 16 Este 0 1017 0.9 41
2019-08-29 10:00:00 25.3 10 Nordeste 18 Nordeste 0 1016.4 2.5 44
2019-08-29 09:00:00 24.7 9 Nordeste 24 Norte 0 1016.3 0.5 49
2019-08-29 08:00:00 24.3 8 Noroeste 38 Este 0 1016.1 0.4 54
2019-08-29 07:00:00 24.9 29 Este 37 Este 0 1013.9 -1.9 55
2019-08-29 06:00:00 24 4 Este 11 Este 0 1015.8 -0.2 57
2019-08-29 05:00:00 24.3 5 Este 13 Este 0 1015.7 -0.5 55
2019-08-29 04:00:00 24.5 4 Nordeste 17 Nordeste 0 1015.8 -0.4 52
2019-08-29 03:00:00 24.6 7 Nordeste -- -- -- 1016 0 52
2019-08-29 02:00:00 24.6 7 Nordeste 13 Este 0 1016.2 0.4 55
2019-08-29 01:00:00 24.2 4 Norte 12 Nordeste 0 1016.2 1.1 76
2019-08-29 00:00:00 24 4 Noroeste 9 Norte 0 1016 1.3 78
2019-08-28 23:00:00 24.5 0 Calma 8 Norte 0 1015.8 0.9 70
2019-08-28 22:00:00 24.4 6 Norte 14 Noroeste 0 1015.1 0.3 73
2019-08-28 21:00:00 25.3 11 Noroeste 18 Noroeste 0 1014.7 -0.4 55
2019-08-28 20:00:00 25.6 12 Oeste 19 Oeste 0 1014.9 -0.1 62
2019-08-28 19:00:00 26.4 12 Oeste 21 Oeste 0 1014.8 -1 59
2019-08-28 18:00:00 28.1 16 Oeste 23 Oeste 0 1015.1 -0.8 55
2019-08-28 17:00:00 27.6 17 Oeste 30 Oeste 0 1015 -1.3 58
2019-08-28 16:00:00 26.9 17 Oeste 26 Oeste 0 1015.8 -0.9 62
2019-08-28 15:00:00 27.3 16 Oeste 23 Oeste 0 1015.9 -0.7 59
2019-08-28 14:00:00 27 13 Oeste 19 Oeste 0 1016.3 -0.2 58
2019-08-28 13:00:00 26.3 9 Oeste 15 Oeste 0 1016.7 0.5 61
2019-08-28 12:00:00 26.1 6 Oeste 11 Oeste 0 1016.6 0.5 64
2019-08-28 11:00:00 25.1 4 Sur 16 Sudeste 0 1016.5 0.6 64
2019-08-28 10:00:00 24.4 10 Este 17 Este 0 1016.2 0.5 69
2019-08-28 09:00:00 22 0 Calma 6 Nordeste 0 1016.1 0.8 77
2019-08-28 08:00:00 21.2 4 Nordeste 12 Norte 0 1015.9 0.6 81
2019-08-28 07:00:00 21.4 2 Norte 5 Sudeste 0 1015.7 0.1 80
2019-08-28 06:00:00 21.2 2 Nordeste 8 Este 0 1015.3 -0.5 78
2019-08-28 05:00:00 21.2 3 Este 9 Nordeste 0 1015.3 -1.3 79
2019-08-28 04:00:00 21.1 4 Este 9 Nordeste 0 1015.6 -1.2 80
2019-08-28 03:00:00 21.3 0 Calma 9 Nordeste 0 1015.8 -1 85
2019-08-28 02:00:00 21.6 7 Nordeste 13 Norte 0 1016.6 0.2 85
2019-08-28 01:00:00 21.6 8 Norte 11 Norte 0 1016.8 0.8 88
2019-08-28 00:00:00 21.3 7 Norte 15 Noroeste 0 1016.8 1 89
2019-08-27 23:00:00 21.4 12 Noroeste 19 Norte 0 1016.4 0.7 88
2019-08-27 22:00:00 21.8 12 Noroeste 19 Noroeste 0 1016 0.2 85
2019-08-27 21:00:00 22.3 8 Oeste 17 Oeste 0 1015.8 -0.3 81
2019-08-27 20:00:00 23.8 10 Oeste 21 Oeste 0 1015.7 -0.7 72
2019-08-27 19:00:00 24.7 13 Oeste 24 Oeste 0 1015.8 -0.9 68
2019-08-27 18:00:00 25 13 Oeste 24 Sudoeste 0 1016.1 -0.8 67
2019-08-27 17:00:00 25.1 14 Oeste 22 Sudoeste 0 1016.4 -1.1 65
2019-08-27 16:00:00 24.9 13 Sudoeste 22 Oeste 0 1016.7 -1.3 66
2019-08-27 15:00:00 25 12 Sudoeste 19 Sudoeste 0 1016.9 -0.8 65
2019-08-27 14:00:00 24.8 11 Sudoeste 19 Sudoeste 0 1017.5 -0.2 64
2019-08-27 13:00:00 24.3 9 Sur 18 Sur 0 1018 0.9 71
2019-08-27 12:00:00 24.1 8 Sur 15 Sur 0 1017.7 1.2 69
2019-08-27 11:00:00 23.3 7 Sur 15 Sur 0 1017.7 1.9 70
2019-08-27 10:00:00 22.5 8 Sur 14 Sur 0 1017.1 1.8 72
2019-08-27 09:00:00 21.6 6 Sur 15 Sur 0 1016.5 1.4 74
2019-08-27 08:00:00 21.3 8 Sur 15 Sur 0 1015.8 0.8 75
2019-08-27 07:00:00 21.2 6 Sudoeste 14 Sudoeste 0 1015.3 0 77
2019-08-27 06:00:00 21.2 6 Sudoeste 14 Sudoeste 0 1015.1 -0.4 75
2019-08-27 05:00:00 21.1 8 Sudoeste 20 Sudoeste 0 1015 -0.6 82
2019-08-27 04:00:00 21.2 9 Sudoeste 19 Sudoeste 0 1015.3 0 85
2019-08-27 03:00:00 21.5 10 Sur 22 Sudoeste 0 1015.5 -0.2 88
2019-08-27 02:00:00 21.5 13 Sur 28 Sur 0 1015.6 0.1 88
2019-08-27 01:00:00 21.3 16 Sur 24 Sur 0 1015.3 0.5 88
2019-08-27 00:00:00 21.7 15 Sudeste 20 Sudeste 0 1015.7 1.6 84
2019-08-26 23:00:00 21.9 10 Sudeste 13 Sudeste 0 1015.5 1.8 84
2019-08-26 22:00:00 21.6 4 Sur 17 Sudoeste 0 1014.8 1.5 82
2019-08-26 21:00:00 22 13 Sudoeste 20 Sudoeste 0 1014.1 0.8 79
2019-08-26 20:00:00 23.3 8 Sudoeste 23 Sudoeste 0 1013.7 0 75
2019-08-26 19:00:00 24.1 12 Sudoeste 23 Sudoeste 0 1013.3 -0.8 72
2019-08-26 18:00:00 24.4 13 Sudoeste 23 Sudoeste 0 1013.3 -1 68
2019-08-26 17:00:00 24.8 12 Sudoeste 27 Sudoeste 0 1013.7 -0.4 66
2019-08-26 16:00:00 24.6 13 Sudoeste 23 Sudoeste 0 1014.1 -0.4 68
2019-08-26 15:00:00 24.2 10 Sur 18 Sur 0 1014.3 0.1 71
2019-08-26 14:00:00 24.2 11 Sur 18 Sur 0 1014.1 0.2 73
2019-08-26 13:00:00 23.4 8 Sur 20 Sur 0 1014.5 1.3 79
2019-08-26 12:00:00 23.1 12 Sur 18 Sudoeste 0 1014.2 1.4 84
2019-08-26 11:00:00 22.6 9 Sur 20 Sur 0 1013.9 1.4 87
2019-08-26 10:00:00 22.6 15 Sur 28 Sur 0 1013.2 1.5 88
2019-08-26 09:00:00 22.6 19 Sur 36 Sur 0 1012.8 1.1 89
2019-08-26 08:00:00 22.8 27 Sur 37 Sur 0 1012.5 0.7 86
2019-08-26 07:00:00 23.6 15 Sur 26 Sur 0 1011.7 -0.4 83
2019-08-26 06:00:00 24.4 19 Sudeste 28 Sudeste 0 1011.7 -1 77
2019-08-26 05:00:00 24.2 20 Sudeste 27 Sudeste 0 1011.8 -1 78
2019-08-26 04:00:00 24.3 19 Sudeste 25 Sudeste 0 1012.1 -1 76
2019-08-26 03:00:00 24.5 16 Sudeste 24 Sudeste 0 1012.7 -0.4 75
2019-08-26 02:00:00 24.8 19 Sudeste 25 Sudeste 0 1012.8 -0.2 74
2019-08-26 01:00:00 24.4 4 Sudeste 9 Sudeste 0 1013.1 0.6 69
2019-08-26 00:00:00 24.3 5 Noroeste 14 Oeste 0 1013.1 0.9 73
2019-08-25 23:00:00 24.4 8 Oeste 19 Sudeste 0 1013 1 69
2019-08-25 22:00:00 26.2 14 Sudeste 23 Sudeste 0 1012.5 0.6 59
2019-08-25 21:00:00 26.7 13 Sudeste 28 Sudeste 0 1012.2 -0.8 53
2019-08-25 20:00:00 27.5 23 Sudeste 45 Sudeste 0 1012 -0.6 53
2019-08-25 19:00:00 28.5 29 Sudeste 49 Este 0 1011.9 -1.1 46
2019-08-25 18:00:00 29 22 Sudeste 33 Sudeste 0 1013 -0.7 49
2019-08-25 17:00:00 30 29 Sudeste 37 Sudeste 0 1012.6 -1.4 44
2019-08-25 16:00:00 30 24 Sudeste 37 Este 0 1013 -1.7 48
2019-08-25 15:00:00 30.1 22 Este 37 Este 0 1013.7 -1.3 46
2019-08-25 14:00:00 29.6 26 Este 39 Este 0 1014 -1.4 49
2019-08-25 13:00:00 28.4 30 Este 41 Este 0 1014.7 -0.5 51
2019-08-25 12:00:00 27.3 32 Este 40 Sudeste 0 1015 -0.4 56
2019-08-25 11:00:00 26.5 28 Este 39 Sudeste 0 1015.4 0.6 62
2019-08-25 10:00:00 25.1 21 Este 37 Este 0 1015.2 0.4 68
2019-08-25 09:00:00 24.3 15 Este 33 Sudeste 0 1015.4 0.6 72
2019-08-25 08:00:00 23.1 13 Este 26 Este 0 1014.8 -0.1 77
2019-08-25 07:00:00 22.6 5 Este 13 Este 0 1014.8 -0.3 70
2019-08-25 06:00:00 23 4 Este 14 Este 0 1014.8 -0.6 67
2019-08-25 05:00:00 22.4 4 Este 10 Este 0 1014.9 -1 72
2019-08-25 04:00:00 23.1 5 Este 10 Nordeste 0 1015.1 -1 68
2019-08-25 03:00:00 24 6 Nordeste 10 Nordeste 0 1015.4 -0.5 52
2019-08-25 02:00:00 24.6 9 Este 26 Este 0 1015.9 0.3 59
2019-08-25 01:00:00 24.8 7 Este 24 Este 0 1016.1 1 58
2019-08-25 00:00:00 25.1 21 Este 38 Sudeste 0 1015.9 1.1 56
2019-08-24 23:00:00 25.3 27 Este 37 Este 0 1015.6 1 63
2019-08-24 22:00:00 26.1 14 Este 26 Este 0 1015.1 0.2 62
2019-08-24 21:00:00 27.4 27 Este 37 Este 0 1014.8 0 54
2019-08-24 20:00:00 29.6 14 Este 26 Este 0 1014.6 -0.3 44
2019-08-24 19:00:00 28.4 9 Oeste 30 Este 0 1014.9 -0.4 55
2019-08-24 18:00:00 30.2 23 Sudeste 41 Sudeste 0 1014.8 -1.1 43
2019-08-24 17:00:00 30.6 32 Este 41 Sudeste 0 1014.9 -1.2 39
2019-08-24 16:00:00 30.2 25 Sudeste 39 Sudeste 0 1015.3 -1.1 41
2019-08-24 15:00:00 29.9 31 Sudeste 41 Sudeste 0 1015.9 -0.6 41
2019-08-24 14:00:00 29.3 26 Este 39 Este 0 1016.1 -0.4 49
2019-08-24 13:00:00 28.9 24 Este 40 Este 0 1016.4 0.2 51
2019-08-24 12:00:00 28.5 30 Este 41 Este 0 1016.5 0.5 49
2019-08-24 11:00:00 27.4 26 Este 35 Este 0 1016.5 1 54
2019-08-24 10:00:00 26 27 Este 38 Este 0 1016.2 0.9 59
2019-08-24 09:00:00 23.9 5 Nordeste 15 Este 0 1016 1 52
2019-08-24 08:00:00 22.6 6 Nordeste 13 Nordeste 0 1015.5 0.4 49
2019-08-24 07:00:00 22.1 9 Nordeste 14 Norte 0 1015.3 -0.3 56
2019-08-24 06:00:00 22.8 8 Nordeste 13 Norte 0 1015 -0.9 69
2019-08-24 05:00:00 23.3 11 Nordeste 25 Nordeste 0 1015.1 -0.5 67
2019-08-24 04:00:00 24.8 8 Este 26 Nordeste 0 1015.6 0.7 40
2019-08-24 03:00:00 25.1 12 Este 40 Este 0 1015.9 1.2 43
2019-08-24 02:00:00 25.1 28 Este 48 Este 0 1015.6 1.3 52
2019-08-24 01:00:00 25.4 37 Este 55 Este 0 1014.9 0.9 55
2019-08-24 00:00:00 25.6 40 Este 54 Sudeste 0 1014.7 1 56
2019-08-23 23:00:00 25.6 39 Este 55 Este 0 1014.3 1.1 57
2019-08-23 22:00:00 25.9 36 Sudeste 51 Sudeste 0 1014 0.2 59
2019-08-23 21:00:00 26.8 30 Este 45 Este 0 1013.7 -0.2 55
2019-08-23 20:00:00 28.4 35 Este 53 Este 0 1013.2 -1 53
2019-08-23 19:00:00 29.3 36 Sudeste 50 Este 0 1013.8 -0.7 50
2019-08-23 18:00:00 29.5 37 Sudeste 52 Sudeste 0 1013.9 -1.3 49
2019-08-23 17:00:00 29.8 41 Este 53 Sudeste 0 1014.2 -1.2 48
2019-08-23 16:00:00 29.8 41 Sudeste 55 Este 0 1014.5 -1.2 49
2019-08-23 15:00:00 29.5 37 Este 55 Este 0 1015.2 -0.5 50
2019-08-23 14:00:00 29.3 37 Este 56 Este 0 1015.4 -0.6 52
2019-08-23 13:00:00 28.9 42 Este 57 Este 0 1015.7 0 51
2019-08-23 12:00:00 28.2 36 Este 56 Este 0 1015.7 0.2 53
2019-08-23 11:00:00 27.3 28 Este 46 Este 0 1016 1 58
2019-08-23 10:00:00 26.1 28 Este 42 Este 0 1015.7 1.1 64
2019-08-23 09:00:00 25.1 22 Este 40 Este 0 1015.5 1 68
2019-08-23 08:00:00 24.4 17 Este 33 Este 0 1015 0.7 70
2019-08-23 07:00:00 24.2 13 Nordeste 36 Este 0 1014.6 0.3 66
2019-08-23 06:00:00 24.7 13 Este 41 Este 0 1014.5 0.6 65
2019-08-23 05:00:00 25.1 29 Este 57 Este 0 1014.3 0.2 59
2019-08-23 04:00:00 25.3 37 Este 58 Este 0 1014.3 0 53
2019-08-23 03:00:00 25.2 40 Este 55 Este 0 1013.9 -0.6 58
2019-08-23 02:00:00 25.6 35 Este 60 Este 0 1014.1 -0.7 59
2019-08-23 01:00:00 26 38 Este 55 Este 0 1014.3 0 61
2019-08-23 00:00:00 25.8 33 Este 50 Este 0 1014.5 0.5 64
2019-08-22 23:00:00 26.2 37 Este 52 Este 0 1014.8 1 57
2019-08-22 22:00:00 26.6 36 Este 56 Este 0 1014.3 0.4 55
2019-08-22 21:00:00 27.4 39 Este 57 Este 0 1014 -0.2 52
2019-08-22 20:00:00 28.6 32 Este 58 Este 0 1013.8 -0.5 54
2019-08-22 19:00:00 29.3 43 Este 60 Este 0 1013.9 -0.9 50
2019-08-22 18:00:00 29.9 43 Este 57 Este 0 1014.2 -1 48
2019-08-22 17:00:00 30.3 33 Este 55 Este 0 1014.3 -1.1 49
2019-08-22 16:00:00 30.5 37 Este 50 Este 0 1014.8 -1.2 50
2019-08-22 15:00:00 30 36 Este 57 Este 0 1015.2 -1 52
2019-08-22 14:00:00 29.6 41 Este 54 Sudeste 0 1015.4 -0.7 49
2019-08-22 13:00:00 29.1 38 Este 50 Este 0 1016 0 53
2019-08-22 12:00:00 28.3 37 Sudeste 48 Sudeste 0 1016.2 0.2 56
2019-08-22 11:00:00 27.8 23 Este 36 Este 0 1016.1 0.4 57
2019-08-22 10:00:00 26.4 23 Este 37 Este 0 1016 0.9 62
2019-08-22 09:00:00 25.2 18 Este 30 Este 0 1016 0.6 67
2019-08-22 08:00:00 24.6 24 Este 42 Sudeste 0 1015.7 0.2 74
2019-08-22 07:00:00 24.9 32 Este 42 Este 0 1015.1 -0.6 71
2019-08-22 06:00:00 25 25 Este 39 Este 0 1015.4 -0.5 70
2019-08-22 05:00:00 25.1 27 Este 51 Este 0 1015.5 -0.8 71
2019-08-22 04:00:00 25.2 35 Este 45 Este 0 1015.7 -0.7 72
2019-08-22 03:00:00 25.3 34 Sudeste 47 Sudeste 0 1015.9 -0.2 72
2019-08-22 02:00:00 25.5 37 Sudeste 48 Sudeste 0 1016.3 0.6 72
2019-08-22 01:00:00 25.8 37 Sudeste 53 Sudeste 0 1016.4 1.5 73
2019-08-22 00:00:00 25.9 33 Sudeste 51 Sudeste 0 1016.1 1 72
2019-08-21 23:00:00 26.2 33 Sudeste 50 Sudeste 0 1015.7 1.2 70
2019-08-21 22:00:00 26.8 27 Sudeste 42 Este 0 1014.9 0.5 66
2019-08-21 21:00:00 28.3 2 Sur 18 Este 0 1015.1 0.8 60
2019-08-21 20:00:00 26.6 7 Norte 20 Noroeste 0 1014.5 -0.2 71
2019-08-21 19:00:00 26.5 16 Noroeste 22 Noroeste 0 1014.4 -0.8 72
2019-08-21 18:00:00 27.2 12 Noroeste 25 Oeste 0 1014.3 -1.4 68
2019-08-21 17:00:00 26.7 18 Noroeste 28 Oeste 0 1014.7 -1.3 68
2019-08-21 16:00:00 27.3 16 Oeste 26 Noroeste 0 1015.2 -1.2 64
2019-08-21 15:00:00 29 17 Oeste 27 Oeste 0 1015.7 -0.6 54
2019-08-21 14:00:00 28.7 18 Oeste 24 Oeste 0 1016 -0.3 51
2019-08-21 13:00:00 28.2 17 Oeste 31 Sudeste 0 1016.4 0.1 50
2019-08-21 12:00:00 29.2 27 Este 42 Este 0 1016.3 0.1 59
2019-08-21 11:00:00 27.2 19 Sudeste 32 Sudeste 0 1016.3 0.5 68
2019-08-21 10:00:00 23.1 8 Noroeste 11 Noroeste 0 1016.3 0.9 72
2019-08-21 09:00:00 22.3 6 Norte 12 Norte 0 1016.2 0.6 74
2019-08-21 08:00:00 21.8 4 Norte 6 Nordeste 0 1015.8 0.3 79
2019-08-21 07:00:00 22.3 0 Calma 4 Norte 0 1015.4 -0.3 81
2019-08-21 06:00:00 22 2 Oeste 10 Sur 0 1015.6 0 75
2019-08-21 05:00:00 21.9 7 Sur 13 Sur 0 1015.5 -0.5 73
2019-08-21 04:00:00 22.5 8 Este 12 Este 0 1015.7 -0.6 78
2019-08-21 03:00:00 21.9 3 Sur 5 Sudoeste 0 1015.6 -0.6 67
2019-08-21 02:00:00 22.1 0 Calma 8 Sudeste 0 1016 0.2 70
2019-08-21 01:00:00 22.9 7 Sudeste 12 Sudeste 0 1016.3 0.9 68
2019-08-21 00:00:00 21.7 0 Calma 9 Noroeste 0 1016.2 1.3 70